Terminal Aerodrome Forecast
Issued by NWS New Orleans/Baton Rouge, LA

Home | Current Version | Previous Version | Text Only | Print | Product List | Glossary On
Versions: 1 2 3 4 5 6 7 8 9 10 11 12 13 14 15 16 17 18
158
FTUS44 KLIX 231122
TAFBTR
TAF
KBTR 231122Z 2312/2412 32006KT P6SM SCT006
      TEMPO 2312/2314 BKN006
     FM231400 33007KT P6SM SKC
     FM240100 VRB03KT P6SM SKC=

USA.gov is the U.S. government's official web portal to all federal, state and local government web resources and services.